Aéroport int. de Vancouver, Colombie-Britannique

Conditions des dernières 24 heures

Date / Heure
(HAP)
Conditions Temp
(°F)
Humidité
(%)
Point de rosée
(°F)
Vent
(mph)
Pression (pouces) Visibilité
(miles)
23 octobre 2014
13:00 Pluie faible 53 92 51 SE 13 29.7 15
12:00 Pluie faible 52 93 50 SE 12 29.7 15
11:00 Pluie faible 52 91 49 E 7 29.7 15
10:00 Pluie faible 50 91 48 NE 5 29.7 15
9:00 Pluie forte 51 93 49 E 3 29.7 12
8:00 Orage avec forte pluie 50 95 49 N 4 29.7 8
7:00 Pluie faible 51 92 49 E 10 29.7 12
6:00 Pluie faible 51 92 49 E 10 29.7 15
5:00 Généralement nuageux 50 91 47 E 8 29.7 15
4:00 Généralement nuageux 51 87 47 ENE 7 29.7 15
3:00 Généralement nuageux 50 89 47 E 7 29.7 15
2:00 Généralement nuageux 49   90 47 ESE 7 29.6 15
1:00 Généralement nuageux 53 81 47 SSE 10 rafale 18 29.6 15
0:00 Généralement nuageux 52 87 48 S 9 29.6 15
22 octobre 2014
23:00 Généralement nuageux 53 95 52 E 2 29.6 12
22:00 Généralement nuageux 53 97 52 SSO 7 29.5 10
21:00 Pluie faible 53 95 52 SE 12 29.5 10
20:00 Pluie faible 53 96 52 E 13 29.5 8
19:00 Pluie 53 95 52 E 11 29.5 8
18:00 Pluie faible 55 93 53 SE 17 rafale 25 29.5 12
17:00 Pluie faible 56 90 53 SE 11 29.6 15
16:00 Généralement nuageux 57   90 54 SE 13 29.6 15
15:00 Généralement nuageux 56 88 53 E 11 29.6 15
14:00 Généralement nuageux 56 90 53 E 12 29.6 15
13:00 Généralement nuageux 57   87 53 ESE 10 29.7 15
N.D. non disponible
↑ température la plus haute
↓ température la plus basse

Si vous désirez plus de données historiques sur les conditions météo, s.v.p. visitez Données climatologiques en ligne.

Date de modification :